createdAt,value
2023-05-15T00:00:00.685Z,12.92
2023-05-15T00:02:36.702Z,12.78
2023-05-15T00:05:10.952Z,12.89
2023-05-15T00:07:39.442Z,12.90
2023-05-15T00:10:08.125Z,12.80
2023-05-15T00:12:37.152Z,12.91
2023-05-15T00:15:05.649Z,12.95
2023-05-15T00:17:34.865Z,12.85
2023-05-15T00:20:02.721Z,12.83
2023-05-15T00:22:32.560Z,12.92
2023-05-15T00:25:00.480Z,12.84
2023-05-15T00:27:28.735Z,12.96
2023-05-15T00:29:56.699Z,12.94
2023-05-15T00:32:24.874Z,13.03
2023-05-15T00:34:53.673Z,13.04
2023-05-15T00:37:21.842Z,12.97
2023-05-15T00:39:50.835Z,12.90
2023-05-15T00:42:19.755Z,12.90
2023-05-15T00:44:49.306Z,12.82
2023-05-15T00:47:19.404Z,12.90
2023-05-15T00:49:53.136Z,12.82
2023-05-15T00:52:23.357Z,12.86
2023-05-15T00:54:51.240Z,12.96
2023-05-15T00:57:21.855Z,12.89
2023-05-15T00:59:52.904Z,12.97
2023-05-15T01:02:21.509Z,13.00
2023-05-15T01:04:50.245Z,12.93
2023-05-15T01:07:19.912Z,12.90
2023-05-15T01:09:49.830Z,12.97
2023-05-15T01:12:20.167Z,12.99
2023-05-15T01:14:49.650Z,12.97
2023-05-15T01:17:17.831Z,12.84
2023-05-15T01:19:49.950Z,12.93
2023-05-15T01:22:40.164Z,12.97
2023-05-15T01:25:20.286Z,12.96
2023-05-15T01:28:01.609Z,12.93
2023-05-15T01:30:36.039Z,12.87
2023-05-15T01:33:13.669Z,13.01
2023-05-15T01:35:56.261Z,13.03
2023-05-15T01:38:48.145Z,13.01
2023-05-15T01:41:32.053Z,12.99
2023-05-15T01:44:09.184Z,12.88
2023-05-15T01:46:43.405Z,13.10
2023-05-15T01:49:14.295Z,13.12
2023-05-15T01:51:44.746Z,13.07
2023-05-15T01:54:15.276Z,12.87
2023-05-15T01:56:46.260Z,12.93
2023-05-15T01:59:16.904Z,12.98
2023-05-15T02:01:47.077Z,13.07
2023-05-15T02:04:16.880Z,12.88
2023-05-15T02:06:45.044Z,13.02
2023-05-15T02:09:15.291Z,13.05
2023-05-15T02:11:43.638Z,12.98
2023-05-15T02:14:13.535Z,13.10
2023-05-15T02:16:41.678Z,13.10
2023-05-15T02:19:10.198Z,13.12
2023-05-15T02:21:38.022Z,13.18
2023-05-15T02:24:08.032Z,13.18
2023-05-15T02:26:51.313Z,13.19
2023-05-15T02:29:23.619Z,13.30
2023-05-15T02:32:12.124Z,13.29
2023-05-15T02:35:04.645Z,13.34
2023-05-15T02:37:38.053Z,13.38
2023-05-15T02:40:11.528Z,13.37
2023-05-15T02:42:42.696Z,13.51
2023-05-15T02:45:12.169Z,13.54
2023-05-15T02:47:41.338Z,13.47
2023-05-15T02:50:11.299Z,13.47
2023-05-15T02:52:39.249Z,13.48
2023-05-15T02:55:08.233Z,13.47
2023-05-15T02:57:36.091Z,13.40
2023-05-15T03:00:07.675Z,13.49
2023-05-15T03:02:35.635Z,13.65
2023-05-15T03:05:03.940Z,13.60
2023-05-15T03:07:32.377Z,13.61
2023-05-15T03:10:00.892Z,13.59
2023-05-15T03:12:28.918Z,13.65
2023-05-15T03:14:57.406Z,13.67
2023-05-15T03:17:26.153Z,13.69
2023-05-15T03:19:54.711Z,13.75
2023-05-15T03:22:22.824Z,13.64
2023-05-15T03:24:51.317Z,13.72
2023-05-15T03:27:21.251Z,13.83
2023-05-15T03:29:51.308Z,13.65
2023-05-15T03:32:20.078Z,13.79
2023-05-15T03:34:48.532Z,13.90
2023-05-15T03:37:19.115Z,13.82
2023-05-15T03:39:47.688Z,13.84
2023-05-15T03:42:15.608Z,13.79
2023-05-15T03:44:43.894Z,14.03
2023-05-15T03:47:14.077Z,14.14
2023-05-15T03:49:42.742Z,14.07
2023-05-15T03:52:10.964Z,14.16
2023-05-15T03:54:41.037Z,14.17
2023-05-15T03:57:08.873Z,14.27
2023-05-15T03:59:38.325Z,14.41
2023-05-15T04:02:06.560Z,14.14
2023-05-15T04:04:36.614Z,14.34
2023-05-15T04:07:05.898Z,14.45
2023-05-15T04:09:34.200Z,14.39
2023-05-15T04:12:02.040Z,14.15
2023-05-15T04:14:30.336Z,14.29
2023-05-15T04:16:58.182Z,14.33
2023-05-15T04:19:26.562Z,14.25
2023-05-15T04:21:55.355Z,14.42
2023-05-15T04:24:23.577Z,14.46
2023-05-15T04:26:51.527Z,14.50
2023-05-15T04:29:19.917Z,14.56
2023-05-15T04:31:47.817Z,14.87
2023-05-15T04:34:17.304Z,14.81
2023-05-15T04:36:45.765Z,14.83
2023-05-15T04:39:14.210Z,15.09
2023-05-15T04:41:42.016Z,15.39
2023-05-15T04:44:14.503Z,15.68
2023-05-15T04:46:42.569Z,15.79
2023-05-15T04:49:10.830Z,15.82
2023-05-15T04:51:39.530Z,15.85
2023-05-15T04:54:08.122Z,15.90
2023-05-15T04:56:36.491Z,15.82
2023-05-15T04:59:05.390Z,16.19
2023-05-15T05:01:34.550Z,16.18
2023-05-15T05:04:02.864Z,16.21
2023-05-15T05:06:31.012Z,16.28
2023-05-15T05:09:00.312Z,16.33
2023-05-15T05:11:28.088Z,16.39
2023-05-15T05:13:56.268Z,16.19
2023-05-15T05:16:24.329Z,16.49
2023-05-15T05:18:52.565Z,16.72
2023-05-15T05:21:20.439Z,16.79
2023-05-15T05:23:48.708Z,16.80
2023-05-15T05:26:16.520Z,16.74
2023-05-15T05:28:44.747Z,16.82
2023-05-15T05:31:12.795Z,16.70
2023-05-15T05:33:41.437Z,16.34
2023-05-15T05:36:11.279Z,16.48
2023-05-15T05:38:40.815Z,16.14
2023-05-15T05:41:08.729Z,16.45
2023-05-15T05:43:37.009Z,16.41
2023-05-15T05:46:04.854Z,16.60
2023-05-15T05:48:33.334Z,16.86
2023-05-15T05:51:01.864Z,16.67
2023-05-15T05:53:30.044Z,16.50
2023-05-15T05:55:57.943Z,16.72
2023-05-15T05:58:26.771Z,16.53
2023-05-15T06:00:55.639Z,16.27
2023-05-15T06:03:24.830Z,16.62
2023-05-15T06:05:54.042Z,16.46
2023-05-15T06:08:23.081Z,16.34
2023-05-15T06:10:50.847Z,16.33
2023-05-15T06:13:19.317Z,16.46
2023-05-15T06:15:47.717Z,16.37
2023-05-15T06:18:15.878Z,16.43
2023-05-15T06:20:44.048Z,16.29
2023-05-15T06:23:12.182Z,16.18
2023-05-15T06:25:40.445Z,16.11
2023-05-15T06:28:08.810Z,16.11
2023-05-15T06:30:36.601Z,15.97
2023-05-15T06:33:04.903Z,16.10
2023-05-15T06:35:32.919Z,15.85
2023-05-15T06:38:01.192Z,16.01
2023-05-15T06:40:29.583Z,15.95
2023-05-15T06:42:59.057Z,15.90
2023-05-15T06:45:28.185Z,15.96
2023-05-15T06:47:58.502Z,15.99
2023-05-15T06:50:27.984Z,16.05
2023-05-15T06:52:56.214Z,16.12
2023-05-15T06:55:24.207Z,16.19
2023-05-15T06:57:52.566Z,16.14
2023-05-15T07:00:20.792Z,16.25
2023-05-15T07:02:49.258Z,16.34
2023-05-15T07:05:18.038Z,16.16
2023-05-15T07:07:46.187Z,16.15
2023-05-15T07:10:14.256Z,16.24
2023-05-15T07:12:42.511Z,16.20
2023-05-15T07:15:10.935Z,16.32
2023-05-15T07:17:39.203Z,16.34
2023-05-15T07:20:07.749Z,16.11
2023-05-15T07:22:44.608Z,16.19
2023-05-15T07:25:20.438Z,16.30
2023-05-15T07:27:48.623Z,16.46
2023-05-15T07:30:16.609Z,16.51
2023-05-15T07:32:44.925Z,16.53
2023-05-15T07:35:14.271Z,16.44
2023-05-15T07:37:42.456Z,16.56
2023-05-15T07:40:10.867Z,16.58
2023-05-15T07:42:40.116Z,16.48
2023-05-15T07:45:08.541Z,16.62
2023-05-15T07:47:36.776Z,16.52
2023-05-15T07:50:05.047Z,16.56
2023-05-15T07:52:33.284Z,16.60
2023-05-15T07:55:01.636Z,16.74
2023-05-15T07:57:32.296Z,16.68
2023-05-15T08:00:00.183Z,16.77
2023-05-15T08:02:28.635Z,16.77
2023-05-15T08:04:56.718Z,16.73
2023-05-15T08:07:25.104Z,16.84
2023-05-15T08:09:52.964Z,16.81
2023-05-15T08:12:22.393Z,16.80
2023-05-15T08:14:55.397Z,16.99
2023-05-15T08:17:26.263Z,16.99
2023-05-15T08:19:54.512Z,16.95
2023-05-15T08:22:23.048Z,17.14
2023-05-15T08:24:50.930Z,17.10
2023-05-15T08:27:20.768Z,16.93
2023-05-15T08:29:48.782Z,17.12
2023-05-15T08:32:16.889Z,17.02
2023-05-15T08:34:45.107Z,16.87
2023-05-15T08:37:13.558Z,17.05
2023-05-15T08:39:41.668Z,17.01
2023-05-15T08:42:20.360Z,16.95
2023-05-15T08:44:48.901Z,17.23
2023-05-15T08:47:19.846Z,17.23
2023-05-15T08:50:06.054Z,17.20
2023-05-15T08:52:36.311Z,17.13
2023-05-15T08:55:05.290Z,17.07
2023-05-15T08:57:36.454Z,17.15
2023-05-15T09:00:15.135Z,17.04
2023-05-15T09:02:43.565Z,17.17
2023-05-15T09:05:12.351Z,17.14
2023-05-15T09:07:42.336Z,17.16
2023-05-15T09:10:10.695Z,17.38
2023-05-15T09:12:43.958Z,17.48
2023-05-15T09:15:18.233Z,17.29
2023-05-15T09:17:47.273Z,17.37
2023-05-15T09:20:28.951Z,17.31
2023-05-15T09:23:02.024Z,17.42
2023-05-15T09:25:42.877Z,17.63
2023-05-15T09:28:25.848Z,17.30
2023-05-15T09:31:04.804Z,17.07
2023-05-15T09:33:35.637Z,17.34
2023-05-15T09:36:05.180Z,17.29
2023-05-15T09:38:34.712Z,17.32
2023-05-15T09:41:08.630Z,17.29
2023-05-15T09:43:41.602Z,17.39
2023-05-15T09:46:12.626Z,17.56
2023-05-15T09:48:41.299Z,17.54
2023-05-15T09:51:17.609Z,17.38
2023-05-15T09:53:52.279Z,17.22
2023-05-15T09:56:20.439Z,17.53
2023-05-15T09:58:57.208Z,17.49
2023-05-15T10:01:26.213Z,17.62
2023-05-15T10:04:03.939Z,17.77
2023-05-15T10:06:41.189Z,17.81
2023-05-15T10:09:11.917Z,17.74
2023-05-15T10:11:44.896Z,17.94
2023-05-15T10:14:14.610Z,17.82
2023-05-15T10:16:42.601Z,17.61
2023-05-15T10:19:12.469Z,17.61
2023-05-15T10:21:42.441Z,17.70
2023-05-15T10:24:12.022Z,17.74
2023-05-15T10:26:43.610Z,17.80
2023-05-15T10:29:14.765Z,17.80
2023-05-15T10:31:43.423Z,17.88
2023-05-15T10:34:12.382Z,18.01
2023-05-15T10:36:40.362Z,17.93
2023-05-15T10:39:08.952Z,17.83
2023-05-15T10:41:39.200Z,17.90
2023-05-15T10:44:07.923Z,18.06
2023-05-15T10:46:37.267Z,18.14
2023-05-15T10:49:06.041Z,18.24
2023-05-15T10:51:36.490Z,18.21
2023-05-15T10:54:06.514Z,18.11
2023-05-15T10:56:37.629Z,18.18
2023-05-15T10:59:08.757Z,18.07
2023-05-15T11:01:40.278Z,18.23
2023-05-15T11:04:11.256Z,18.28
2023-05-15T11:06:43.073Z,18.02
2023-05-15T11:09:36.630Z,18.00
2023-05-15T11:12:06.999Z,17.99
2023-05-15T11:14:55.177Z,18.14
2023-05-15T11:17:24.677Z,17.95
2023-05-15T11:19:53.117Z,17.83
2023-05-15T11:22:26.102Z,17.82
2023-05-15T11:25:09.124Z,17.86
2023-05-15T11:27:40.686Z,17.95
2023-05-15T11:30:11.578Z,18.10
2023-05-15T11:32:52.180Z,18.19
2023-05-15T11:35:28.954Z,18.33
2023-05-15T11:38:11.027Z,18.36
2023-05-15T11:40:52.887Z,18.23
2023-05-15T11:43:29.514Z,18.03
2023-05-15T11:46:04.216Z,17.94
2023-05-15T11:48:38.317Z,17.98
2023-05-15T11:51:17.664Z,18.02
2023-05-15T11:53:46.366Z,18.00
2023-05-15T11:56:26.271Z,18.05
2023-05-15T11:59:02.594Z,18.04
2023-05-15T12:01:40.781Z,18.31
2023-05-15T12:04:16.733Z,18.18
2023-05-15T12:06:47.784Z,18.25
2023-05-15T12:09:19.725Z,18.25
2023-05-15T12:11:49.809Z,18.30
2023-05-15T12:14:17.697Z,18.28
2023-05-15T12:16:45.951Z,18.27
2023-05-15T12:19:13.899Z,18.39
2023-05-15T12:21:47.031Z,18.41
2023-05-15T12:24:15.128Z,18.19
2023-05-15T12:26:43.527Z,18.14
2023-05-15T12:29:11.557Z,18.08
2023-05-15T12:31:39.975Z,18.06
2023-05-15T12:34:08.152Z,17.91
2023-05-15T12:36:36.587Z,18.05
2023-05-15T12:39:08.237Z,18.05
2023-05-15T12:41:40.300Z,18.09
2023-05-15T12:44:16.770Z,18.16
2023-05-15T12:46:46.430Z,18.07
2023-05-15T12:49:14.416Z,17.86
2023-05-15T12:51:44.148Z,17.83
2023-05-15T12:54:19.581Z,17.91
2023-05-15T12:56:48.825Z,17.85
2023-05-15T12:59:16.778Z,17.88
2023-05-15T13:01:45.552Z,17.86
2023-05-15T13:04:13.558Z,17.93
2023-05-15T13:06:46.822Z,17.87
2023-05-15T13:09:22.987Z,17.77
2023-05-15T13:11:51.469Z,17.68
2023-05-15T13:14:19.985Z,17.80
2023-05-15T13:16:48.237Z,17.84
2023-05-15T13:19:17.143Z,18.00
2023-05-15T13:21:50.446Z,17.87
2023-05-15T13:24:18.414Z,18.00
2023-05-15T13:26:47.600Z,17.83
2023-05-15T13:29:15.513Z,17.85
2023-05-15T13:31:43.911Z,17.98
2023-05-15T13:34:11.922Z,17.91
2023-05-15T13:36:40.231Z,17.69
2023-05-15T13:39:08.501Z,17.83
2023-05-15T13:41:38.188Z,17.91
2023-05-15T13:44:08.864Z,17.81
2023-05-15T13:46:37.229Z,17.71
2023-05-15T13:49:05.736Z,17.84
2023-05-15T13:51:34.034Z,17.88
2023-05-15T13:54:02.079Z,17.77
2023-05-15T13:56:30.363Z,17.85
2023-05-15T13:58:58.151Z,17.93
2023-05-15T14:01:26.600Z,17.81
2023-05-15T14:03:54.517Z,17.80
2023-05-15T14:06:22.800Z,17.81
2023-05-15T14:08:50.600Z,17.72
2023-05-15T14:11:19.005Z,17.60
2023-05-15T14:13:47.690Z,17.56
2023-05-15T14:16:16.006Z,17.55
2023-05-15T14:18:43.852Z,17.72
2023-05-15T14:21:16.813Z,17.69
2023-05-15T14:23:44.722Z,17.60
2023-05-15T14:26:12.800Z,17.51
2023-05-15T14:28:40.647Z,17.59
2023-05-15T14:31:09.167Z,17.55
2023-05-15T14:33:36.895Z,17.50
2023-05-15T14:36:05.429Z,17.48
2023-05-15T14:38:33.211Z,17.56
2023-05-15T14:41:01.342Z,17.63
2023-05-15T14:43:30.716Z,17.60
2023-05-15T14:45:59.186Z,17.53
2023-05-15T14:48:32.256Z,17.48
2023-05-15T14:51:01.362Z,17.48
2023-05-15T14:53:29.200Z,17.54
2023-05-15T14:55:58.935Z,17.52
2023-05-15T14:58:27.185Z,17.49
2023-05-15T15:00:59.339Z,17.46
2023-05-15T15:03:28.973Z,17.51
2023-05-15T15:05:58.299Z,17.41
2023-05-15T15:08:26.289Z,17.23
2023-05-15T15:10:54.453Z,17.26
2023-05-15T15:13:22.416Z,17.16
2023-05-15T15:15:52.037Z,17.25
2023-05-15T15:18:21.565Z,17.12
2023-05-15T15:20:49.772Z,17.14
2023-05-15T15:23:18.398Z,17.16
2023-05-15T15:25:46.495Z,17.05
2023-05-15T15:28:14.243Z,17.09
2023-05-15T15:30:42.440Z,17.03
2023-05-15T15:33:10.353Z,17.04
2023-05-15T15:35:38.480Z,16.97
2023-05-15T15:38:06.655Z,16.84
2023-05-15T15:40:35.782Z,16.87
2023-05-15T15:43:03.530Z,16.94
2023-05-15T15:45:31.710Z,16.73
2023-05-15T15:47:59.737Z,16.80
2023-05-15T15:50:28.079Z,16.78
2023-05-15T15:52:56.568Z,16.71
2023-05-15T15:55:25.057Z,16.61
2023-05-15T15:57:52.922Z,16.51
2023-05-15T16:00:21.284Z,16.37
2023-05-15T16:02:49.165Z,16.43
2023-05-15T16:05:17.366Z,16.26
2023-05-15T16:07:45.332Z,16.09
2023-05-15T16:10:13.700Z,16.04
2023-05-15T16:12:42.799Z,16.11
2023-05-15T16:17:45.673Z,16.07
2023-05-15T16:20:14.006Z,15.88
2023-05-15T16:22:43.332Z,15.82
2023-05-15T16:25:11.747Z,15.85
2023-05-15T16:27:39.774Z,15.94
2023-05-15T16:30:09.538Z,15.83
2023-05-15T16:32:37.512Z,15.85
2023-05-15T16:35:06.285Z,15.88
2023-05-15T16:37:34.227Z,15.96
2023-05-15T16:40:03.069Z,15.83
2023-05-15T16:42:36.248Z,15.88
2023-05-15T16:45:05.883Z,15.80
2023-05-15T16:47:34.217Z,15.88
2023-05-15T16:50:04.180Z,15.91
2023-05-15T16:52:33.238Z,15.79
2023-05-15T16:55:01.953Z,15.87
2023-05-15T16:57:31.136Z,15.79
2023-05-15T16:59:59.405Z,15.81
2023-05-15T17:02:27.427Z,15.76
2023-05-15T17:04:56.200Z,15.74
2023-05-15T17:07:24.284Z,15.53
2023-05-15T17:09:52.682Z,15.68
2023-05-15T17:12:20.819Z,15.61
2023-05-15T17:14:49.273Z,15.62
2023-05-15T17:17:17.799Z,15.47
2023-05-15T17:19:46.065Z,15.55
2023-05-15T17:22:14.566Z,15.52
2023-05-15T17:27:18.720Z,15.47
2023-05-15T17:29:48.116Z,15.59
2023-05-15T17:32:17.207Z,15.53
2023-05-15T17:34:46.313Z,15.50
2023-05-15T17:37:15.078Z,15.49
2023-05-15T17:39:43.436Z,15.44
2023-05-15T17:42:11.420Z,15.48
2023-05-15T17:44:39.609Z,15.47
2023-05-15T17:47:08.719Z,15.44
2023-05-15T17:49:38.119Z,15.41
2023-05-15T17:52:08.322Z,15.45
2023-05-15T17:54:36.704Z,15.40
2023-05-15T17:57:05.289Z,15.38
2023-05-15T17:59:33.505Z,15.30
2023-05-15T18:02:03.210Z,15.28
2023-05-15T18:04:31.561Z,15.30
2023-05-15T18:06:59.374Z,15.33
2023-05-15T18:09:27.616Z,15.28
2023-05-15T18:11:56.844Z,15.18
2023-05-15T18:14:25.153Z,15.28
2023-05-15T18:16:53.073Z,15.31
2023-05-15T18:19:21.513Z,15.31
2023-05-15T18:21:49.447Z,15.33
2023-05-15T18:24:17.632Z,15.29
2023-05-15T18:26:45.794Z,15.27
2023-05-15T18:29:14.008Z,15.29
2023-05-15T18:31:41.897Z,15.32
2023-05-15T18:34:10.681Z,15.30
2023-05-15T18:36:38.427Z,15.25
2023-05-15T18:39:07.466Z,15.25
2023-05-15T18:41:35.517Z,15.10
2023-05-15T18:44:03.929Z,15.12
2023-05-15T18:46:32.400Z,15.14
2023-05-15T18:49:00.802Z,15.17
2023-05-15T18:51:29.419Z,15.09
2023-05-15T18:53:57.541Z,15.16
2023-05-15T18:56:25.594Z,15.14
2023-05-15T18:58:54.985Z,15.11
2023-05-15T19:01:22.801Z,15.12
2023-05-15T19:03:51.313Z,15.10
2023-05-15T19:06:20.501Z,15.08
2023-05-15T19:08:49.203Z,14.91
2023-05-15T19:11:17.619Z,15.01
2023-05-15T19:13:46.383Z,14.96
2023-05-15T19:16:14.724Z,14.77
2023-05-15T19:18:43.160Z,14.83
2023-05-15T19:21:11.109Z,14.70
2023-05-15T19:23:39.364Z,14.84
2023-05-15T19:26:07.272Z,14.62
2023-05-15T19:28:35.631Z,14.73
2023-05-15T19:31:04.702Z,14.76
2023-05-15T19:33:34.246Z,14.66
2023-05-15T19:36:02.751Z,14.65
2023-05-15T19:38:31.002Z,14.61
2023-05-15T19:40:59.017Z,14.66
2023-05-15T19:43:27.984Z,14.59
2023-05-15T19:45:55.965Z,14.50
2023-05-15T19:48:25.281Z,14.42
2023-05-15T19:50:53.290Z,14.51
2023-05-15T19:53:21.901Z,14.47
2023-05-15T19:55:50.786Z,14.41
2023-05-15T19:58:23.544Z,14.49
2023-05-15T20:00:53.087Z,14.45
2023-05-15T20:03:22.467Z,14.43
2023-05-15T20:05:53.949Z,14.31
2023-05-15T20:08:22.589Z,14.24
2023-05-15T20:10:52.717Z,14.28
2023-05-15T20:13:22.389Z,14.29
2023-05-15T20:15:58.743Z,14.29
2023-05-15T20:18:32.131Z,14.20
2023-05-15T20:21:02.552Z,14.19
2023-05-15T20:23:31.353Z,14.25
2023-05-15T20:25:59.955Z,14.24
2023-05-15T20:28:29.269Z,14.24
2023-05-15T20:30:57.962Z,14.22
2023-05-15T20:33:31.966Z,14.06
2023-05-15T20:36:00.746Z,14.01
2023-05-15T20:38:29.413Z,14.02
2023-05-15T20:40:57.605Z,13.95
2023-05-15T20:43:27.168Z,13.97
2023-05-15T20:45:55.974Z,14.02
2023-05-15T20:48:25.521Z,14.01
2023-05-15T20:50:54.122Z,13.95
2023-05-15T20:53:22.467Z,13.92
2023-05-15T20:55:50.296Z,13.88
2023-05-15T20:58:18.748Z,13.78
2023-05-15T21:00:46.549Z,13.75
2023-05-15T21:03:15.443Z,13.74
2023-05-15T21:05:43.334Z,13.69
2023-05-15T21:08:11.826Z,13.52
2023-05-15T21:10:40.766Z,13.61
2023-05-15T21:13:09.362Z,13.41
2023-05-15T21:15:37.707Z,13.35
2023-05-15T21:18:06.016Z,13.44
2023-05-15T21:20:35.202Z,13.48
2023-05-15T21:23:03.715Z,13.39
2023-05-15T21:25:32.906Z,13.40
2023-05-15T21:28:02.587Z,13.41
2023-05-15T21:30:32.203Z,13.40
2023-05-15T21:33:00.602Z,13.37
2023-05-15T21:35:29.230Z,13.36
2023-05-15T21:37:58.008Z,13.45
2023-05-15T21:40:26.004Z,13.24
2023-05-15T21:42:54.637Z,13.17
2023-05-15T21:45:22.587Z,13.21
2023-05-15T21:47:50.884Z,13.17
2023-05-15T21:50:18.738Z,13.16
2023-05-15T21:52:47.115Z,13.15
2023-05-15T21:55:15.279Z,13.14
2023-05-15T21:57:43.430Z,13.11
2023-05-15T22:00:11.654Z,13.12
2023-05-15T22:02:40.135Z,13.16
2023-05-15T22:05:08.807Z,13.07
2023-05-15T22:07:37.007Z,13.14
2023-05-15T22:10:05.500Z,12.97
2023-05-15T22:12:34.520Z,13.06
2023-05-15T22:15:02.740Z,13.07
2023-05-15T22:17:32.940Z,13.01
2023-05-15T22:20:08.332Z,13.10
2023-05-15T22:22:36.855Z,13.04
2023-05-15T22:25:05.918Z,12.95
2023-05-15T22:27:34.357Z,12.96
2023-05-15T22:30:03.048Z,12.85
2023-05-15T22:32:33.592Z,12.83
2023-05-15T22:35:03.897Z,12.82
2023-05-15T22:37:33.119Z,12.89
2023-05-15T22:40:01.273Z,12.92
2023-05-15T22:42:32.887Z,12.78
2023-05-15T22:45:02.415Z,12.76
2023-05-15T22:47:31.776Z,12.75
2023-05-15T22:50:00.086Z,12.72
2023-05-15T22:52:28.434Z,12.77
2023-05-15T22:54:56.270Z,12.77
2023-05-15T22:57:24.557Z,12.79
2023-05-15T22:59:52.372Z,12.70
2023-05-15T23:02:23.634Z,12.69
2023-05-15T23:04:51.483Z,12.67
2023-05-15T23:07:20.876Z,12.69
2023-05-15T23:09:49.162Z,12.60
2023-05-15T23:12:17.360Z,12.53
2023-05-15T23:14:45.448Z,12.50
2023-05-15T23:17:13.649Z,12.49
2023-05-15T23:19:41.453Z,12.57
2023-05-15T23:22:09.616Z,12.52
2023-05-15T23:24:40.020Z,12.47
2023-05-15T23:27:08.515Z,12.49
2023-05-15T23:29:36.890Z,12.41
2023-05-15T23:32:06.642Z,12.34
2023-05-15T23:34:35.010Z,12.22
2023-05-15T23:37:03.121Z,12.17
2023-05-15T23:39:30.974Z,12.23
2023-05-15T23:42:00.336Z,12.16
2023-05-15T23:44:28.539Z,12.19
2023-05-15T23:46:59.857Z,12.15
2023-05-15T23:49:28.254Z,12.20
2023-05-15T23:51:56.472Z,12.10
2023-05-15T23:54:24.279Z,12.00
2023-05-15T23:56:52.506Z,12.05
2023-05-15T23:59:20.747Z,12.08
